Time;durP1;ratioP1;P1;durP2;ratioP2;P2;SDS_P1;SDS_P2;PMS_P1;PMS_P2;Temp;Humidity;BMP_temperature;BMP_pressure;BME280_temperature;BME280_humidity;BME280_pressure;Samples;Min_cycle;Max_cycle;Signal;HPM_P1;HPM_P2
2022/12/01 00:02:23;;;;;;;20.77;13.87;;;6.40;99.90;;;;;;10428665;28;20228;-75
2022/12/01 00:07:23;;;;;;;26.87;16.07;;;6.40;99.90;;;;;;10427773;28;20307;-76
2022/12/01 00:12:24;;;;;;;26.93;16.47;;;6.50;99.90;;;;;;10428426;28;20264;-74
2022/12/01 00:17:24;;;;;;;31.43;17.83;;;6.50;99.90;;;;;;10455549;28;20271;-73
2022/12/01 00:22:25;;;;;;;24.40;16.10;;;6.50;99.90;;;;;;10427612;28;20232;-75
2022/12/01 00:27:26;;;;;;;28.67;16.93;;;6.40;99.90;;;;;;10427305;28;20220;-76
2022/12/01 00:32:29;;;;;;;28.30;17.80;;;6.40;99.90;;;;;;10428841;28;20636;-75
2022/12/01 00:37:31;;;;;;;25.47;16.63;;;6.40;99.90;;;;;;10424783;28;20305;-75
2022/12/01 00:42:32;;;;;;;26.53;16.13;;;6.40;99.90;;;;;;10428877;28;20577;-73
2022/12/01 00:47:32;;;;;;;25.03;16.47;;;6.50;99.90;;;;;;10426380;28;20228;-74
2022/12/01 00:52:33;;;;;;;26.00;15.57;;;6.60;99.90;;;;;;10428881;28;20235;-73
2022/12/01 00:57:36;;;;;;;24.50;15.90;;;6.60;99.90;;;;;;10426301;28;20220;-75
2022/12/01 01:02:38;;;;;;;24.10;16.07;;;6.60;99.90;;;;;;10429511;28;20234;-75
2022/12/01 01:07:39;;;;;;;28.80;18.03;;;6.50;99.90;;;;;;10443604;28;20224;-74
2022/12/01 01:12:40;;;;;;;24.07;16.07;;;6.60;99.90;;;;;;10431679;28;20766;-77
2022/12/01 01:17:40;;;;;;;25.53;16.40;;;6.40;99.90;;;;;;10433107;28;20258;-77
2022/12/01 01:22:41;;;;;;;23.40;16.33;;;6.30;99.90;;;;;;10438188;28;20212;-77
2022/12/01 01:27:41;;;;;;;25.03;17.23;;;6.30;99.90;;;;;;10438893;28;20318;-75
2022/12/01 01:32:42;;;;;;;25.27;16.63;;;6.00;99.90;;;;;;10439231;28;20220;-75
2022/12/01 01:37:42;;;;;;;25.40;16.97;;;6.00;99.90;;;;;;10444555;28;20310;-75
2022/12/01 01:42:43;;;;;;;29.57;17.73;;;6.00;99.90;;;;;;10431832;28;20219;-75
2022/12/01 01:47:43;;;;;;;25.90;17.00;;;6.00;99.90;;;;;;10436795;28;20315;-74
2022/12/01 01:52:47;;;;;;;23.23;16.77;;;6.10;99.90;;;;;;10430435;28;20232;-75
2022/12/01 01:57:48;;;;;;;25.33;17.33;;;6.10;99.90;;;;;;10436683;28;20653;-74
2022/12/01 02:02:50;;;;;;;26.27;17.63;;;6.00;99.90;;;;;;10429894;28;20265;-74
2022/12/01 02:07:54;;;;;;;29.33;18.63;;;6.00;99.90;;;;;;10436680;28;20219;-74
2022/12/01 02:13:13;;;;;;;26.17;17.40;;;5.90;99.90;;;;;;10428754;28;20231;-74
2022/12/01 02:18:48;;;;;;;24.87;17.23;;;5.90;99.90;;;;;;10429587;28;20221;-74
2022/12/01 02:24:17;;;;;;;28.83;18.27;;;6.00;99.90;;;;;;10436327;28;20226;-74
2022/12/01 02:29:33;;;;;;;26.83;18.73;;;6.10;99.90;;;;;;10432057;28;20569;-74
2022/12/01 02:34:51;;;;;;;29.30;19.00;;;6.20;99.90;;;;;;10438764;28;20261;-72
2022/12/01 02:40:09;;;;;;;28.83;19.60;;;6.20;99.90;;;;;;10428090;28;20252;-72
2022/12/01 02:45:15;;;;;;;27.60;18.20;;;6.20;99.90;;;;;;10435443;28;20610;-74
2022/12/01 02:50:16;;;;;;;25.97;17.80;;;6.00;99.90;;;;;;10429095;28;20335;-73
2022/12/01 02:55:17;;;;;;;26.47;17.77;;;5.90;99.90;;;;;;10430062;28;20261;-73
2022/12/01 03:00:18;;;;;;;25.53;17.63;;;6.00;99.90;;;;;;10430032;28;20203;-73
2022/12/01 03:05:34;;;;;;;26.40;17.20;;;6.10;99.90;;;;;;10434305;28;20184;-73
2022/12/01 03:10:44;;;;;;;27.00;18.27;;;6.10;99.90;;;;;;10428686;28;20232;-73
2022/12/01 03:15:52;;;;;;;27.90;18.07;;;6.10;99.90;;;;;;10434258;28;20753;-74
2022/12/01 03:21:04;;;;;;;26.07;18.10;;;6.10;99.90;;;;;;10437553;28;20215;-73
2022/12/01 03:26:08;;;;;;;33.33;19.37;;;6.00;99.90;;;;;;10427500;28;20220;-73
2022/12/01 03:31:13;;;;;;;29.17;18.13;;;6.10;99.90;;;;;;10430880;28;20366;-72
2022/12/01 03:36:21;;;;;;;26.23;18.93;;;5.90;99.90;;;;;;10436349;28;20223;-72
2022/12/01 03:41:30;;;;;;;27.67;18.73;;;5.90;99.90;;;;;;10427481;28;20584;-73
2022/12/01 03:46:45;;;;;;;30.53;17.90;;;5.90;99.90;;;;;;10426318;28;20597;-72
2022/12/01 03:52:02;;;;;;;26.63;18.37;;;5.90;99.90;;;;;;10430987;28;20765;-72
2022/12/01 03:57:08;;;;;;;26.63;17.97;;;5.90;99.90;;;;;;10425588;28;20274;-72
2022/12/01 04:02:08;;;;;;;27.77;18.60;;;5.90;99.90;;;;;;10429948;28;20261;-75
2022/12/01 04:07:13;;;;;;;30.83;17.90;;;5.90;99.90;;;;;;10422480;28;20645;-71
2022/12/01 04:12:29;;;;;;;29.77;18.73;;;6.00;99.90;;;;;;10432084;28;20228;-73
2022/12/01 04:17:30;;;;;;;26.20;17.97;;;6.00;99.90;;;;;;10429165;28;20686;-73
2022/12/01 04:22:32;;;;;;;28.70;18.00;;;5.90;99.90;;;;;;10424745;28;20223;-71
2022/12/01 04:27:33;;;;;;;27.67;17.87;;;5.90;99.90;;;;;;10428506;28;20220;-71
2022/12/01 04:32:41;;;;;;;24.87;18.00;;;5.90;99.90;;;;;;10424159;28;20228;-69
2022/12/01 04:37:42;;;;;;;28.47;18.37;;;6.00;99.90;;;;;;10422191;28;20224;-72
2022/12/01 04:42:42;;;;;;;28.47;18.03;;;5.90;99.90;;;;;;10430037;28;20234;-71
2022/12/01 04:47:43;;;;;;;23.40;16.50;;;5.90;99.90;;;;;;10433403;28;20312;-72
2022/12/01 04:52:44;;;;;;;25.20;17.33;;;5.90;99.90;;;;;;10424343;28;20311;-72
2022/12/01 04:57:44;;;;;;;25.10;16.93;;;5.80;99.90;;;;;;10428438;28;20278;-71
2022/12/01 05:02:45;;;;;;;24.10;16.43;;;5.80;99.90;;;;;;10424002;28;20660;-71
2022/12/01 05:07:45;;;;;;;21.83;15.00;;;5.90;99.90;;;;;;10430590;28;20220;-71
2022/12/01 05:12:46;;;;;;;26.30;15.37;;;5.80;99.90;;;;;;10436537;28;20266;-71
2022/12/01 05:17:47;;;;;;;27.03;16.57;;;5.80;99.90;;;;;;10422280;28;20217;-71
2022/12/01 05:22:47;;;;;;;22.03;14.90;;;5.80;99.90;;;;;;10438114;28;20212;-71
2022/12/01 05:27:48;;;;;;;22.97;15.90;;;5.70;99.90;;;;;;10422742;28;20266;-73
2022/12/01 05:32:48;;;;;;;23.20;15.47;;;5.60;99.90;;;;;;10435226;28;20266;-72
2022/12/01 05:37:49;;;;;;;22.27;14.63;;;5.50;99.90;;;;;;10422905;28;20220;-73
2022/12/01 05:42:52;;;;;;;21.27;15.13;;;5.60;99.90;;;;;;10430223;28;20647;-73
2022/12/01 05:47:57;;;;;;;22.20;15.03;;;5.60;99.90;;;;;;10422164;28;20764;-73
2022/12/01 05:52:58;;;;;;;22.10;14.43;;;5.50;99.90;;;;;;10434733;28;20810;-73
2022/12/01 05:57:59;;;;;;;21.67;15.20;;;5.40;99.90;;;;;;10430185;28;20232;-74
2022/12/01 06:03:00;;;;;;;21.33;14.70;;;5.30;99.90;;;;;;10444275;28;20314;-75
2022/12/01 06:08:01;;;;;;;23.60;15.60;;;5.40;99.90;;;;;;10430331;28;20659;-75
2022/12/01 06:13:02;;;;;;;22.37;15.03;;;5.50;99.90;;;;;;10434529;28;20231;-80
2022/12/01 06:18:02;;;;;;;22.97;15.53;;;5.60;99.90;;;;;;10431205;28;20235;-80
2022/12/01 06:23:03;;;;;;;25.37;15.77;;;5.50;99.90;;;;;;10437322;28;20216;-79
2022/12/01 06:28:04;;;;;;;21.67;14.90;;;5.60;99.90;;;;;;10435901;28;20216;-79
2022/12/01 06:33:04;;;;;;;23.53;15.63;;;5.70;99.90;;;;;;10428799;28;20596;-75
2022/12/01 06:38:05;;;;;;;23.05;16.77;;;5.60;99.90;;;;;;10432388;28;20505;-75
2022/12/01 06:43:06;;;;;;;24.83;17.13;;;5.50;99.90;;;;;;10429088;28;20872;-75
2022/12/01 06:48:07;;;;;;;20.57;14.97;;;5.40;99.90;;;;;;10434145;28;20235;-75
2022/12/01 06:53:10;;;;;;;22.87;15.53;;;5.40;99.90;;;;;;10435599;28;20235;-75
2022/12/01 06:58:10;;;;;;;18.03;12.73;;;5.60;99.90;;;;;;10432501;28;20303;-74
2022/12/01 07:03:12;;;;;;;23.83;14.00;;;5.40;99.90;;;;;;10443159;28;20668;-71
2022/12/01 07:08:12;;;;;;;18.33;13.67;;;5.50;99.90;;;;;;10446045;28;20224;-69
2022/12/01 07:13:13;;;;;;;18.03;12.60;;;5.30;99.90;;;;;;10439728;28;20232;-70
2022/12/01 07:18:15;;;;;;;24.30;14.20;;;5.30;99.90;;;;;;10446646;28;20988;-74
2022/12/01 07:23:15;;;;;;;21.00;14.43;;;5.40;99.90;;;;;;10478682;28;20224;-74
2022/12/01 07:28:16;;;;;;;17.67;12.40;;;5.30;99.90;;;;;;10443713;28;20234;-73
2022/12/01 07:33:16;;;;;;;17.87;12.87;;;5.20;99.90;;;;;;10447312;28;20587;-74
2022/12/01 07:38:17;;;;;;;17.43;12.17;;;5.10;99.90;;;;;;10447582;28;20218;-74
2022/12/01 07:43:17;;;;;;;18.00;14.10;;;5.20;99.90;;;;;;10445939;28;20219;-70
2022/12/01 07:48:18;;;;;;;17.63;12.30;;;5.20;99.90;;;;;;10445279;28;20665;-74
2022/12/01 07:53:20;;;;;;;18.60;12.60;;;5.30;99.90;;;;;;10444286;28;20231;-74
2022/12/01 07:58:20;;;;;;;17.40;12.47;;;5.30;99.90;;;;;;10446141;28;20227;-73
2022/12/01 08:03:21;;;;;;;15.60;11.50;;;5.40;99.90;;;;;;10443222;28;20216;-75
2022/12/01 08:08:21;;;;;;;18.50;12.77;;;5.40;99.90;;;;;;10445518;28;20224;-74
2022/12/01 08:13:22;;;;;;;16.17;11.77;;;5.50;99.90;;;;;;10445828;28;20302;-76
2022/12/01 08:18:23;;;;;;;16.97;11.53;;;5.50;99.90;;;;;;10444736;28;20683;-73
2022/12/01 08:23:24;;;;;;;16.93;12.00;;;5.60;99.90;;;;;;10445464;28;20239;-73
2022/12/01 08:28:24;;;;;;;17.17;12.37;;;5.60;99.90;;;;;;10443479;28;20216;-73
2022/12/01 08:33:25;;;;;;;18.77;12.70;;;5.60;99.90;;;;;;10445533;28;20227;-73
2022/12/01 08:38:25;;;;;;;18.13;11.50;;;5.70;99.90;;;;;;10443162;28;20642;-73
2022/12/01 08:43:26;;;;;;;15.93;11.40;;;5.70;99.90;;;;;;10443721;28;20738;-72
2022/12/01 08:48:30;;;;;;;16.60;11.40;;;5.80;99.90;;;;;;10442941;28;20234;-73
2022/12/01 08:53:31;;;;;;;15.17;11.07;;;5.70;99.90;;;;;;10443200;28;20232;-73
2022/12/01 08:58:32;;;;;;;15.80;10.57;;;5.70;99.90;;;;;;10444174;28;20242;-72
2022/12/01 09:03:34;;;;;;;15.80;10.67;;;5.70;99.90;;;;;;10444424;28;20591;-72
2022/12/01 09:08:35;;;;;;;16.80;10.77;;;5.70;99.90;;;;;;10443654;28;20250;-69
2022/12/01 09:13:38;;;;;;;13.17;9.77;;;5.80;99.90;;;;;;10442869;28;20219;-70
2022/12/01 09:18:39;;;;;;;13.00;9.23;;;5.70;99.90;;;;;;10445627;28;20220;-69
2022/12/01 09:23:40;;;;;;;13.87;9.73;;;5.80;99.90;;;;;;10443832;28;20679;-70
2022/12/01 09:28:42;;;;;;;16.97;10.03;;;5.50;99.90;;;;;;10450776;28;20293;-69
2022/12/01 09:33:43;;;;;;;11.93;9.07;;;5.50;99.90;;;;;;10449274;28;20228;-72
2022/12/01 09:38:44;;;;;;;13.03;9.57;;;5.70;99.90;;;;;;10450038;28;20238;-72
2022/12/01 09:44:12;;;;;;;13.23;9.57;;;5.80;99.90;;;;;;10452168;28;20216;-73
2022/12/01 09:49:42;;;;;;;10.30;8.60;;;6.10;99.90;;;;;;10411264;28;20227;-71
2022/12/01 09:54:45;;;;;;;12.20;8.90;;;6.10;99.90;;;;;;10418639;28;20228;-73
2022/12/01 09:59:46;;;;;;;12.37;9.20;;;6.00;99.90;;;;;;10449728;28;20222;-73
2022/12/01 10:04:50;;;;;;;12.00;8.40;;;6.00;99.90;;;;;;10450036;28;20604;-73
2022/12/01 10:09:56;;;;;;;13.13;9.27;;;6.40;99.90;;;;;;10449514;28;20254;-75
2022/12/01 10:15:14;;;;;;;12.53;9.20;;;6.70;99.90;;;;;;10451166;28;20223;-75
2022/12/01 10:20:24;;;;;;;11.50;8.53;;;6.80;99.90;;;;;;10442819;28;20320;-75
2022/12/01 10:25:39;;;;;;;11.13;8.33;;;7.60;99.90;;;;;;10462416;28;20250;-75
2022/12/01 10:30:50;;;;;;;12.73;9.00;;;8.10;99.90;;;;;;10449809;28;20232;-74
2022/12/01 10:35:52;;;;;;;12.30;9.37;;;7.80;99.90;;;;;;10449287;28;20209;-73
2022/12/01 10:40:56;;;;;;;14.00;9.87;;;7.40;99.90;;;;;;10449426;28;20219;-72
2022/12/01 10:46:04;;;;;;;12.80;9.47;;;7.20;99.90;;;;;;10447397;28;20427;-73
2022/12/01 10:51:16;;;;;;;13.50;9.30;;;7.00;99.90;;;;;;10448882;28;20306;-73
2022/12/01 10:56:20;;;;;;;12.47;9.17;;;7.00;99.90;;;;;;10446201;28;20224;-73
2022/12/01 11:01:35;;;;;;;12.07;9.20;;;7.00;99.90;;;;;;10447651;28;20250;-73
2022/12/01 11:06:36;;;;;;;12.53;9.07;;;7.10;99.90;;;;;;10430391;28;20219;-74
2022/12/01 11:11:39;;;;;;;12.00;9.10;;;7.10;99.90;;;;;;10447066;28;20678;-76
2022/12/01 11:16:43;;;;;;;14.40;9.43;;;7.10;99.90;;;;;;10447239;28;20238;-75
2022/12/01 11:22:10;;;;;;;;;;;;;;;;;;;;;
2022/12/01 11:27:18;;;;;;;13.67;10.20;;;7.20;99.90;;;;;;10446986;28;20342;-76
2022/12/01 11:32:37;;;;;;;12.00;9.10;;;7.20;99.90;;;;;;10448022;28;20319;-73
2022/12/01 11:37:45;;;;;;;12.23;8.20;;;7.30;99.90;;;;;;10446520;28;20609;-74
2022/12/01 11:42:49;;;;;;;11.90;9.07;;;7.20;99.90;;;;;;10446851;28;20229;-75
2022/12/01 11:48:19;;;;;;;13.57;9.33;;;7.20;99.90;;;;;;10446809;28;20630;-74
2022/12/01 11:53:35;;;;;;;10.47;8.33;;;7.20;99.90;;;;;;10445325;28;20358;-74
2022/12/01 11:58:36;;;;;;;10.43;7.43;;;7.20;99.90;;;;;;10446138;28;20240;-72
2022/12/01 12:04:03;;;;;;;11.07;7.90;;;7.20;99.90;;;;;;10445546;28;20369;-73
2022/12/01 12:09:28;;;;;;;12.27;7.70;;;7.20;99.90;;;;;;10446374;28;20223;-73
2022/12/01 12:14:47;;;;;;;12.60;8.60;;;7.40;99.90;;;;;;10446122;28;20327;-74
2022/12/01 12:20:06;;;;;;;11.87;8.47;;;7.50;99.90;;;;;;10443822;28;20225;-73
2022/12/01 12:25:26;;;;;;;11.97;8.93;;;7.70;99.90;;;;;;10446117;28;20255;-74
2022/12/01 12:30:30;;;;;;;16.97;12.03;;;7.70;99.90;;;;;;10441064;28;20582;-74
2022/12/01 12:35:51;;;;;;;17.83;12.17;;;7.70;99.90;;;;;;10468343;28;20301;-73
2022/12/01 12:41:10;;;;;;;16.60;11.03;;;7.50;99.90;;;;;;10447148;28;20354;-74
2022/12/01 12:46:16;;;;;;;16.20;11.17;;;7.40;99.90;;;;;;10443435;28;20215;-73
2022/12/01 12:51:23;;;;;;;18.43;12.43;;;7.50;99.90;;;;;;10443889;28;20273;-74
2022/12/01 12:56:26;;;;;;;17.47;13.27;;;7.70;99.90;;;;;;10442766;28;20213;-72
2022/12/01 13:01:33;;;;;;;19.17;12.97;;;7.50;99.90;;;;;;10449867;28;20314;-73
2022/12/01 13:06:40;;;;;;;18.90;13.67;;;7.30;99.90;;;;;;10451666;28;20219;-73
2022/12/01 13:11:50;;;;;;;19.03;13.43;;;7.20;99.90;;;;;;10451134;28;20228;-73
2022/12/01 13:16:54;;;;;;;20.63;13.67;;;7.30;99.90;;;;;;10451990;28;20216;-73
2022/12/01 13:21:56;;;;;;;19.57;13.17;;;7.20;99.90;;;;;;10452056;28;20215;-73
2022/12/01 13:27:03;;;;;;;22.33;14.10;;;7.20;99.90;;;;;;10448216;28;20231;-73
2022/12/01 13:32:06;;;;;;;18.90;13.63;;;7.30;99.90;;;;;;10451341;28;20232;-73
2022/12/01 13:37:09;;;;;;;19.07;13.53;;;7.40;99.90;;;;;;10452521;28;20415;-73
2022/12/01 13:42:24;;;;;;;18.40;13.67;;;7.70;99.90;;;;;;10450218;28;20309;-73
2022/12/01 13:47:45;;;;;;;17.80;12.83;;;7.90;99.90;;;;;;10451432;28;20633;-73
2022/12/01 13:52:49;;;;;;;19.37;13.23;;;7.80;99.90;;;;;;10449202;28;20237;-72
2022/12/01 13:58:13;;;;;;;18.57;12.70;;;7.80;99.90;;;;;;10449728;28;20247;-72
2022/12/01 14:03:16;;;;;;;15.00;10.90;;;7.70;99.90;;;;;;10449246;28;20234;-71
2022/12/01 14:08:36;;;;;;;17.67;12.40;;;7.50;99.90;;;;;;10448062;28;20265;-72
2022/12/01 14:13:58;;;;;;;17.23;11.57;;;7.40;99.90;;;;;;10448261;28;20238;-73
2022/12/01 14:18:59;;;;;;;15.93;11.23;;;7.30;99.90;;;;;;10448843;28;20220;-73
2022/12/01 14:24:05;;;;;;;17.17;11.83;;;7.40;99.90;;;;;;10448352;28;20565;-74
2022/12/01 14:29:09;;;;;;;16.43;11.43;;;7.40;99.90;;;;;;10446501;28;20592;-76
2022/12/01 14:34:19;;;;;;;15.77;11.33;;;7.30;99.90;;;;;;10445833;28;20311;-75
2022/12/01 14:39:33;;;;;;;15.10;11.60;;;7.20;99.90;;;;;;10448279;28;20215;-75
2022/12/01 14:44:53;;;;;;;18.37;12.97;;;7.20;99.90;;;;;;10447851;28;20350;-76
2022/12/01 14:50:05;;;;;;;21.03;15.03;;;7.20;99.90;;;;;;10447587;28;20721;-75
2022/12/01 14:55:20;;;;;;;20.37;14.70;;;7.00;99.90;;;;;;10445502;28;20247;-77
2022/12/01 15:00:23;;;;;;;22.77;15.17;;;6.90;99.90;;;;;;10450399;28;20184;-74
2022/12/01 15:05:29;;;;;;;20.10;13.97;;;6.90;99.90;;;;;;10447442;28;20187;-71
2022/12/01 15:10:35;;;;;;;19.27;14.67;;;6.80;99.90;;;;;;10448189;28;20231;-75
2022/12/01 15:15:50;;;;;;;24.43;15.13;;;6.60;99.90;;;;;;10445101;28;20220;-75
2022/12/01 15:21:05;;;;;;;24.10;15.70;;;6.50;99.90;;;;;;10445530;28;20208;-76
2022/12/01 15:26:16;;;;;;;24.03;17.27;;;6.40;99.90;;;;;;10476451;28;20219;-76
2022/12/01 15:31:16;;;;;;;26.63;17.03;;;6.30;99.90;;;;;;10444849;28;20338;-76
2022/12/01 15:36:17;;;;;;;23.47;16.83;;;6.30;99.90;;;;;;10446649;28;20457;-76
2022/12/01 15:41:21;;;;;;;23.97;16.60;;;6.20;99.90;;;;;;10446951;28;20220;-76
2022/12/01 15:46:38;;;;;;;25.00;17.10;;;6.10;99.90;;;;;;10445381;28;20278;-75
2022/12/01 15:51:38;;;;;;;24.67;16.50;;;6.10;99.90;;;;;;10442856;28;20234;-75
2022/12/01 15:56:40;;;;;;;22.63;15.80;;;6.20;99.90;;;;;;10444758;28;20232;-75
2022/12/01 16:01:44;;;;;;;27.97;18.50;;;6.20;99.90;;;;;;10445235;28;20220;-75
2022/12/01 16:06:57;;;;;;;24.37;16.10;;;6.20;99.90;;;;;;10443904;28;20216;-75
2022/12/01 16:12:11;;;;;;;23.57;15.63;;;6.20;99.90;;;;;;10478396;28;20231;-75
2022/12/01 16:17:12;;;;;;;27.63;17.77;;;6.20;99.90;;;;;;10444801;28;20230;-75
2022/12/01 16:22:19;;;;;;;26.40;17.40;;;6.20;99.90;;;;;;10444174;28;20218;-75
2022/12/01 16:27:28;;;;;;;27.87;17.83;;;6.20;99.90;;;;;;10444452;28;20734;-76
2022/12/01 16:32:37;;;;;;;29.70;18.37;;;6.10;99.90;;;;;;10442728;28;20266;-75
2022/12/01 16:37:37;;;;;;;25.73;17.27;;;6.10;99.90;;;;;;10445949;28;20226;-75
2022/12/01 16:42:38;;;;;;;25.07;16.87;;;6.00;99.90;;;;;;10442393;28;20261;-73
2022/12/01 16:47:39;;;;;;;25.50;16.30;;;6.00;99.90;;;;;;10442790;28;20705;-73
2022/12/01 16:52:40;;;;;;;24.07;15.70;;;6.00;99.90;;;;;;10445141;28;20255;-73
2022/12/01 16:57:41;;;;;;;27.73;16.77;;;5.90;99.90;;;;;;10443766;28;20222;-73
2022/12/01 17:02:43;;;;;;;27.07;17.53;;;5.90;99.90;;;;;;10445764;28;20212;-75
2022/12/01 17:07:44;;;;;;;25.70;16.37;;;5.90;99.90;;;;;;10445726;28;20258;-73
2022/12/01 17:12:46;;;;;;;28.20;17.20;;;5.90;99.90;;;;;;10445989;28;20303;-74
2022/12/01 17:17:46;;;;;;;29.93;18.27;;;5.90;99.90;;;;;;10443500;28;20215;-74
2022/12/01 17:22:47;;;;;;;30.60;18.50;;;5.90;99.90;;;;;;10445096;28;20274;-74
2022/12/01 17:27:50;;;;;;;25.10;17.00;;;5.90;99.90;;;;;;10427829;28;20596;-75
2022/12/01 17:32:51;;;;;;;27.73;17.80;;;5.90;99.90;;;;;;10445365;28;20277;-74
2022/12/01 17:37:52;;;;;;;27.20;17.53;;;5.90;99.90;;;;;;10443585;28;20208;-73
2022/12/01 17:42:52;;;;;;;31.07;18.77;;;5.90;99.90;;;;;;10441744;28;20227;-74
2022/12/01 17:47:54;;;;;;;29.10;18.73;;;5.80;99.90;;;;;;10445907;28;20735;-73
2022/12/01 17:52:54;;;;;;;31.47;18.73;;;5.80;99.90;;;;;;10452070;28;20254;-74
2022/12/01 17:57:57;;;;;;;30.90;18.57;;;5.80;99.90;;;;;;10450213;28;20240;-72
2022/12/01 18:02:58;;;;;;;29.37;18.33;;;5.80;99.90;;;;;;10451608;28;20228;-71
2022/12/01 18:07:59;;;;;;;30.20;18.40;;;5.80;99.90;;;;;;10450573;28;20219;-73
2022/12/01 18:12:59;;;;;;;31.87;19.13;;;5.80;99.90;;;;;;10451224;28;20318;-73
2022/12/01 18:18:00;;;;;;;33.73;19.20;;;5.70;99.90;;;;;;10449777;28;20237;-73
2022/12/01 18:23:00;;;;;;;31.67;19.70;;;5.70;99.90;;;;;;10448487;28;20211;-74
2022/12/01 18:28:02;;;;;;;32.03;19.33;;;5.80;99.90;;;;;;10450051;28;20204;-80
2022/12/01 18:33:09;;;;;;;35.87;21.10;;;5.80;99.90;;;;;;10435365;28;20257;-80
2022/12/01 18:38:10;;;;;;;36.63;20.93;;;5.80;99.90;;;;;;10475657;28;20709;-79
2022/12/01 18:43:12;;;;;;;35.50;20.80;;;5.80;99.90;;;;;;10447888;28;20269;-76
2022/12/01 18:48:12;;;;;;;36.13;20.97;;;5.80;99.90;;;;;;10450417;28;20219;-76
2022/12/01 18:53:16;;;;;;;38.57;22.40;;;5.80;99.90;;;;;;10449701;28;20230;-76
2022/12/01 18:58:17;;;;;;;37.20;21.00;;;5.80;99.90;;;;;;10448646;28;20216;-76
2022/12/01 19:03:18;;;;;;;34.27;20.77;;;5.70;99.90;;;;;;10449842;28;20882;-76
2022/12/01 19:08:18;;;;;;;36.67;21.90;;;5.70;99.90;;;;;;10447747;28;20381;-76
2022/12/01 19:13:19;;;;;;;40.53;22.43;;;5.80;99.90;;;;;;10449071;28;20254;-76
2022/12/01 19:18:19;;;;;;;35.63;21.23;;;5.60;99.90;;;;;;10445324;28;20212;-75
2022/12/01 19:23:21;;;;;;;37.97;22.03;;;5.60;99.90;;;;;;10444794;28;20234;-78
2022/12/01 19:28:22;;;;;;;41.93;22.27;;;5.60;99.90;;;;;;10445297;28;20702;-79
2022/12/01 19:33:23;;;;;;;40.70;22.10;;;5.60;99.90;;;;;;10445275;28;20605;-82
2022/12/01 19:38:24;;;;;;;38.03;21.57;;;5.60;99.90;;;;;;10447803;28;20208;-81
2022/12/01 19:43:29;;;;;;;36.57;21.60;;;5.50;99.90;;;;;;10447687;28;20218;-76
2022/12/01 19:48:30;;;;;;;40.33;22.90;;;5.50;99.90;;;;;;10441816;28;20219;-77
2022/12/01 19:53:31;;;;;;;40.83;23.20;;;5.60;99.90;;;;;;10444658;28;20228;-76
2022/12/01 19:58:32;;;;;;;36.93;21.47;;;5.50;99.90;;;;;;10443984;28;20638;-76
2022/12/01 20:03:34;;;;;;;38.80;22.43;;;5.60;99.90;;;;;;10424335;28;20239;-76
2022/12/01 20:08:34;;;;;;;38.80;23.07;;;5.50;99.90;;;;;;10442741;28;20872;-75
2022/12/01 20:13:37;;;;;;;38.87;21.93;;;5.50;99.90;;;;;;10445312;28;20250;-78
2022/12/01 20:18:39;;;;;;;36.57;22.13;;;5.50;99.90;;;;;;10447379;28;20219;-77
2022/12/01 20:23:40;;;;;;;37.73;22.87;;;5.60;99.90;;;;;;10447559;28;20208;-79
2022/12/01 20:28:46;;;;;;;43.30;23.40;;;5.40;99.90;;;;;;10446458;28;20595;-78
2022/12/01 20:33:48;;;;;;;40.57;22.53;;;5.40;99.90;;;;;;10445516;28;20227;-77
2022/12/01 20:38:48;;;;;;;37.70;21.97;;;5.40;99.90;;;;;;10447176;28;20275;-79
2022/12/01 20:43:49;;;;;;;41.70;23.63;;;5.40;99.90;;;;;;10444486;28;20224;-76
2022/12/01 20:48:49;;;;;;;37.00;22.33;;;5.30;99.90;;;;;;10444889;28;20566;-74
2022/12/01 20:53:50;;;;;;;38.80;22.73;;;5.30;99.90;;;;;;10442423;28;20213;-77
2022/12/01 20:58:51;;;;;;;39.40;22.17;;;5.30;99.90;;;;;;10443124;28;20218;-75
2022/12/01 21:03:52;;;;;;;41.93;21.87;;;5.30;99.90;;;;;;10443816;28;20245;-75
2022/12/01 21:08:53;;;;;;;39.27;22.77;;;5.30;99.90;;;;;;10444168;28;20215;-75
2022/12/01 21:13:54;;;;;;;40.17;21.73;;;5.30;99.90;;;;;;10444531;28;20723;-75
2022/12/01 21:18:59;;;;;;;41.47;22.83;;;5.30;99.90;;;;;;10444812;28;20249;-75
2022/12/01 21:24:15;;;;;;;38.53;22.70;;;5.30;99.90;;;;;;10450317;28;20251;-74
2022/12/01 21:29:23;;;;;;;36.17;20.90;;;5.20;99.90;;;;;;10452446;28;20315;-75
2022/12/01 21:34:26;;;;;;;41.33;23.20;;;5.20;99.90;;;;;;10450275;28;20307;-75
2022/12/01 21:39:30;;;;;;;37.50;21.87;;;5.20;99.90;;;;;;10450375;28;20209;-75
2022/12/01 21:44:36;;;;;;;38.67;21.47;;;5.20;99.90;;;;;;10451725;28;20274;-75
2022/12/01 21:49:38;;;;;;;37.87;21.23;;;5.20;99.90;;;;;;10449711;28;20215;-74
2022/12/01 21:54:38;;;;;;;38.00;22.07;;;5.20;99.90;;;;;;10452092;28;20216;-74
2022/12/01 21:59:39;;;;;;;37.83;21.57;;;5.20;99.90;;;;;;10450261;28;20216;-74
2022/12/01 22:04:42;;;;;;;38.07;21.73;;;5.20;99.90;;;;;;10451310;28;20561;-74
2022/12/01 22:09:42;;;;;;;36.57;20.97;;;5.10;99.90;;;;;;10452120;28;20216;-73
2022/12/01 22:14:43;;;;;;;39.43;21.87;;;5.10;99.90;;;;;;10447821;28;20222;-71
2022/12/01 22:19:54;;;;;;;44.40;22.00;;;5.10;99.90;;;;;;10450047;28;20216;-72
2022/12/01 22:24:59;;;;;;;40.77;21.37;;;5.10;99.90;;;;;;10449672;28;20240;-72
2022/12/01 22:30:20;;;;;;;36.40;20.77;;;5.10;99.90;;;;;;10450549;28;20321;-72
2022/12/01 22:35:27;;;;;;;39.87;21.53;;;5.10;99.90;;;;;;10448658;28;20223;-73
2022/12/01 22:40:54;;;;;;;38.70;20.73;;;5.10;99.90;;;;;;10449863;28;20323;-71
2022/12/01 22:46:13;;;;;;;40.40;21.07;;;5.20;99.90;;;;;;10449961;28;20216;-72
2022/12/01 22:51:29;;;;;;;39.67;21.03;;;5.10;99.90;;;;;;10444906;28;20220;-72
2022/12/01 22:56:39;;;;;;;37.23;20.97;;;5.10;99.90;;;;;;10446052;28;20269;-71
2022/12/01 23:02:01;;;;;;;38.33;20.93;;;5.10;99.90;;;;;;10449209;28;20212;-72
2022/12/01 23:07:02;;;;;;;41.73;22.40;;;5.00;99.90;;;;;;10447504;28;20239;-73
2022/12/01 23:12:09;;;;;;;43.37;21.60;;;4.90;99.90;;;;;;10437318;28;20319;-71
2022/12/01 23:17:24;;;;;;;39.20;21.27;;;4.90;99.90;;;;;;10430120;28;20306;-71
2022/12/01 23:22:25;;;;;;;41.43;20.87;;;4.90;99.90;;;;;;10432365;28;20254;-71
2022/12/01 23:27:26;;;;;;;35.33;19.53;;;4.90;99.90;;;;;;10441202;28;20223;-73
2022/12/01 23:32:26;;;;;;;40.00;20.90;;;4.90;99.90;;;;;;10429771;28;20228;-72
2022/12/01 23:37:34;;;;;;;38.90;20.47;;;4.90;99.90;;;;;;10430717;28;20226;-71
2022/12/01 23:42:35;;;;;;;41.23;21.67;;;4.90;99.90;;;;;;10429266;28;20777;-73
2022/12/01 23:47:35;;;;;;;36.53;20.80;;;4.90;99.90;;;;;;10427894;28;20235;-71
2022/12/01 23:52:36;;;;;;;36.37;19.73;;;4.80;99.90;;;;;;10428537;28;20220;-72
2022/12/01 23:57:36;;;;;;;36.17;20.97;;;4.90;99.90;;;;;;10431234;28;20600;-72
